Time;durP1;ratioP1;P1;durP2;ratioP2;P2;SDS_P1;SDS_P2;PMS_P1;PMS_P2;Temp;Humidity;BMP_temperature;BMP_pressure;BME280_temperature;BME280_humidity;BME280_pressure;Samples;Min_cycle;Max_cycle;Signal;HPM_P1;HPM_P2
2022/10/22 00:01:37;;;;;;;7.90;3.70;;;13.40;99.90;;;;;;7309944;32;20163;-59
2022/10/22 00:05:39;;;;;;;9.32;3.90;;;13.40;99.90;;;;;;7318422;32;20112;-58
2022/10/22 00:09:41;;;;;;;9.50;3.95;;;13.60;99.90;;;;;;7312243;32;20116;-59
2022/10/22 00:13:43;;;;;;;7.70;3.78;;;13.60;99.90;;;;;;7318948;32;20807;-59
2022/10/22 00:17:45;;;;;;;8.90;3.15;;;13.60;99.90;;;;;;7314393;32;20124;-59
2022/10/22 00:21:48;;;;;;;8.35;3.40;;;13.60;99.90;;;;;;7316471;32;20323;-60
2022/10/22 00:25:49;;;;;;;6.25;3.33;;;13.70;99.90;;;;;;7321928;32;20148;-59
2022/10/22 00:29:51;;;;;;;7.30;3.65;;;13.70;99.90;;;;;;7325111;32;20138;-59
2022/10/22 00:33:53;;;;;;;5.53;3.08;;;13.80;99.90;;;;;;7334418;32;20891;-59
2022/10/22 00:37:54;;;;;;;9.88;4.10;;;13.80;99.90;;;;;;7318986;32;20525;-59
2022/10/22 00:41:57;;;;;;;7.62;2.97;;;13.80;99.90;;;;;;7306782;32;20187;-59
2022/10/22 00:45:59;;;;;;;7.37;3.65;;;13.80;99.90;;;;;;7312606;32;20207;-59
2022/10/22 00:50:02;;;;;;;8.13;3.70;;;13.80;99.90;;;;;;7314979;32;20116;-58
2022/10/22 00:54:09;;;;;;;9.45;3.83;;;13.80;99.90;;;;;;7322152;32;20271;-58
2022/10/22 00:58:12;;;;;;;10.63;4.30;;;13.80;99.90;;;;;;7316479;32;20133;-59
2022/10/22 01:02:14;;;;;;;6.25;4.60;;;13.80;99.90;;;;;;7325441;32;20202;-59
2022/10/22 01:06:34;;;;;;;7.82;3.22;;;13.70;99.90;;;;;;7323136;32;20138;-59
2022/10/22 01:10:59;;;;;;;7.20;3.50;;;13.80;99.90;;;;;;7322437;32;20111;-59
2022/10/22 01:15:19;;;;;;;6.00;3.12;;;13.70;99.90;;;;;;7322670;32;20103;-58
2022/10/22 01:19:59;;;;;;;7.30;3.55;;;13.80;99.90;;;;;;7313546;32;20116;-58
2022/10/22 01:24:22;;;;;;;7.43;3.28;;;13.80;99.90;;;;;;7317424;32;20119;-59
2022/10/22 01:28:51;;;;;;;7.30;3.22;;;13.80;99.90;;;;;;7317586;32;20202;-58
2022/10/22 01:32:59;;;;;;;12.10;3.92;;;13.70;99.90;;;;;;7323639;32;20265;-58
2022/10/22 01:37:02;;;;;;;7.90;3.53;;;13.80;99.90;;;;;;7317443;32;20137;-58
2022/10/22 01:41:04;;;;;;;7.87;3.75;;;13.90;99.90;;;;;;7313534;32;20145;-58
2022/10/22 01:45:13;;;;;;;8.90;3.60;;;13.80;99.90;;;;;;7315352;32;20157;-58
2022/10/22 01:49:28;;;;;;;10.25;3.62;;;13.80;99.90;;;;;;7311257;32;20134;-59
2022/10/22 01:53:43;;;;;;;14.45;3.67;;;13.80;99.90;;;;;;7309825;32;20758;-58
2022/10/22 01:58:22;;;;;;;10.88;4.20;;;13.80;99.90;;;;;;7315340;32;20171;-59
2022/10/22 02:03:09;;;;;;;10.40;4.25;;;13.80;99.90;;;;;;7299266;32;20136;-58
2022/10/22 02:07:14;;;;;;;8.25;4.00;;;13.80;99.90;;;;;;7285371;32;20248;-58
2022/10/22 02:11:16;;;;;;;8.57;3.72;;;13.80;99.90;;;;;;7315784;32;20111;-59
2022/10/22 02:15:19;;;;;;;11.95;4.00;;;13.80;99.90;;;;;;7314073;32;20781;-58
2022/10/22 02:19:36;;;;;;;7.28;3.65;;;13.80;99.90;;;;;;7315095;32;20163;-58
2022/10/22 02:23:38;;;;;;;10.25;4.28;;;13.80;99.90;;;;;;7312995;32;20112;-59
2022/10/22 02:27:48;;;;;;;8.27;3.67;;;13.80;99.90;;;;;;7324060;32;20137;-58
2022/10/22 02:31:52;;;;;;;8.40;3.65;;;13.80;99.90;;;;;;7318515;32;20112;-58
2022/10/22 02:35:54;;;;;;;13.48;4.00;;;13.90;99.90;;;;;;7316596;32;20162;-58
2022/10/22 02:39:56;;;;;;;12.68;3.60;;;13.80;99.90;;;;;;7306736;32;20711;-59
2022/10/22 02:43:58;;;;;;;9.43;3.78;;;13.90;99.90;;;;;;7308024;32;20508;-59
2022/10/22 02:48:01;;;;;;;10.88;4.20;;;13.90;99.90;;;;;;7309742;32;20477;-59
2022/10/22 02:52:03;;;;;;;7.90;3.83;;;13.80;99.90;;;;;;7321233;32;20107;-58
2022/10/22 02:56:05;;;;;;;8.20;3.58;;;13.80;99.90;;;;;;7319191;32;20516;-58
2022/10/22 03:00:08;;;;;;;11.55;4.18;;;13.80;99.90;;;;;;7312831;32;20290;-59
2022/10/22 03:04:10;;;;;;;7.18;3.92;;;13.70;99.90;;;;;;7316088;32;20107;-59
2022/10/22 03:08:12;;;;;;;10.43;3.97;;;13.70;99.90;;;;;;7315482;32;20207;-59
2022/10/22 03:12:13;;;;;;;8.38;4.35;;;13.80;99.90;;;;;;7325968;32;20218;-58
2022/10/22 03:16:15;;;;;;;9.90;4.40;;;13.70;99.90;;;;;;7318663;32;20106;-59
2022/10/22 03:20:17;;;;;;;8.90;4.57;;;13.60;99.90;;;;;;7316346;32;20112;-58
2022/10/22 03:24:24;;;;;;;12.65;5.25;;;13.60;99.90;;;;;;7316198;32;20278;-59
2022/10/22 03:28:26;;;;;;;9.73;4.72;;;13.50;99.90;;;;;;7315381;32;20153;-59
2022/10/22 03:32:27;;;;;;;7.78;4.32;;;13.50;99.90;;;;;;7317773;32;20108;-58
2022/10/22 03:36:30;;;;;;;7.82;4.70;;;13.50;99.90;;;;;;7312049;32;20194;-58
2022/10/22 03:40:32;;;;;;;7.57;4.28;;;13.40;99.90;;;;;;7316557;32;20127;-60
2022/10/22 03:44:36;;;;;;;8.77;4.82;;;13.40;99.90;;;;;;7319862;32;20232;-58
2022/10/22 03:48:38;;;;;;;10.35;5.25;;;13.40;99.90;;;;;;7325566;32;20111;-58
2022/10/22 03:52:40;;;;;;;8.68;4.70;;;13.50;99.90;;;;;;7319402;32;20523;-58
2022/10/22 03:56:41;;;;;;;5.00;3.85;;;13.40;99.90;;;;;;7324196;32;20236;-59
2022/10/22 04:00:43;;;;;;;12.32;5.28;;;13.30;99.90;;;;;;7319557;32;20588;-58
2022/10/22 04:04:45;;;;;;;8.77;4.97;;;13.30;99.90;;;;;;7310394;32;20134;-58
2022/10/22 04:08:47;;;;;;;14.07;5.47;;;13.30;99.90;;;;;;7320640;32;20214;-59
2022/10/22 04:12:49;;;;;;;9.27;5.30;;;13.30;99.90;;;;;;7321707;32;20203;-59
2022/10/22 04:16:50;;;;;;;12.63;5.28;;;13.40;99.90;;;;;;7317075;32;20512;-58
2022/10/22 04:20:52;;;;;;;11.23;4.87;;;13.40;99.90;;;;;;7322494;32;20112;-58
2022/10/22 04:24:54;;;;;;;8.27;5.20;;;13.40;99.90;;;;;;7324419;32;20111;-58
2022/10/22 04:28:56;;;;;;;10.23;5.28;;;13.40;99.90;;;;;;7322972;32;20136;-58
2022/10/22 04:32:57;;;;;;;9.80;5.15;;;13.40;99.90;;;;;;7324038;32;20116;-59
2022/10/22 04:36:59;;;;;;;9.05;4.90;;;13.40;99.90;;;;;;7313584;32;20665;-58
2022/10/22 04:41:08;;;;;;;11.45;5.32;;;13.30;99.90;;;;;;7316695;32;20120;-59
2022/10/22 04:45:10;;;;;;;10.98;5.00;;;13.40;99.90;;;;;;7323192;32;20573;-58
2022/10/22 04:49:12;;;;;;;11.55;5.10;;;13.40;99.90;;;;;;7313996;32;20130;-60
2022/10/22 04:53:13;;;;;;;8.10;5.00;;;13.40;99.90;;;;;;7318371;32;20130;-58
2022/10/22 04:57:15;;;;;;;12.37;5.85;;;13.30;99.90;;;;;;7316284;32;20116;-60
2022/10/22 05:01:23;;;;;;;11.50;5.30;;;13.30;99.90;;;;;;7317591;32;20134;-58
2022/10/22 05:05:24;;;;;;;13.73;5.47;;;13.20;99.90;;;;;;7317729;32;20212;-58
2022/10/22 05:09:26;;;;;;;8.65;5.72;;;13.20;99.90;;;;;;7312707;32;20130;-59
2022/10/22 05:13:28;;;;;;;10.82;5.22;;;13.10;99.90;;;;;;7316431;32;20099;-58
2022/10/22 05:17:30;;;;;;;11.50;5.35;;;13.10;99.90;;;;;;7317966;32;20104;-59
2022/10/22 05:21:32;;;;;;;7.28;5.37;;;13.00;99.90;;;;;;7314645;32;20116;-59
2022/10/22 05:25:40;;;;;;;8.52;5.43;;;13.10;99.90;;;;;;7317012;32;20225;-58
2022/10/22 05:29:41;;;;;;;10.07;5.32;;;13.00;99.90;;;;;;7325583;32;20120;-59
2022/10/22 05:33:44;;;;;;;13.02;5.43;;;12.90;99.90;;;;;;7312120;32;20103;-60
2022/10/22 05:37:46;;;;;;;49.55;35.28;;;12.80;99.90;;;;;;7313717;32;20124;-60
2022/10/22 05:41:48;;;;;;;10.65;7.95;;;12.80;99.90;;;;;;7311063;32;20226;-60
2022/10/22 05:45:49;;;;;;;13.10;7.22;;;12.70;99.90;;;;;;7315285;32;20198;-60
2022/10/22 05:49:51;;;;;;;12.80;7.10;;;12.70;99.90;;;;;;7317303;32;20130;-60
2022/10/22 05:53:55;;;;;;;9.70;6.12;;;12.70;99.90;;;;;;7313850;32;20116;-60
2022/10/22 05:57:57;;;;;;;10.35;6.37;;;12.70;99.90;;;;;;7314807;32;20115;-60
2022/10/22 06:01:59;;;;;;;9.63;6.25;;;12.80;99.90;;;;;;7308885;32;20265;-60
2022/10/22 06:06:05;;;;;;;12.77;9.80;;;12.90;99.90;;;;;;7307948;32;20131;-60
2022/10/22 06:10:13;;;;;;;13.62;9.30;;;12.80;99.90;;;;;;7325131;32;20124;-60
2022/10/22 06:14:15;;;;;;;16.05;7.80;;;12.90;99.90;;;;;;7313801;32;20254;-59
2022/10/22 06:18:17;;;;;;;13.75;7.82;;;12.80;99.90;;;;;;7312285;32;20172;-59
2022/10/22 06:22:19;;;;;;;11.82;7.47;;;12.90;99.90;;;;;;7320834;32;20262;-59
2022/10/22 06:26:21;;;;;;;11.07;6.18;;;12.90;99.90;;;;;;7314304;32;20762;-59
2022/10/22 06:30:23;;;;;;;12.73;7.12;;;13.00;99.90;;;;;;7316539;32;20268;-62
2022/10/22 06:34:24;;;;;;;10.88;6.70;;;13.00;99.90;;;;;;7313587;32;20111;-64
2022/10/22 06:38:26;;;;;;;9.65;7.00;;;13.10;99.90;;;;;;7324756;32;20138;-63
2022/10/22 06:42:28;;;;;;;9.82;6.62;;;13.10;99.90;;;;;;7311149;32;20126;-64
2022/10/22 06:46:30;;;;;;;10.85;6.25;;;13.10;99.90;;;;;;7315492;32;20194;-63
2022/10/22 06:50:35;;;;;;;12.35;6.45;;;13.10;99.90;;;;;;7313809;32;20140;-62
2022/10/22 06:54:37;;;;;;;12.30;5.78;;;13.20;99.90;;;;;;7321025;32;20150;-64
2022/10/22 06:58:39;;;;;;;15.75;6.82;;;13.20;99.90;;;;;;7310660;32;20187;-63
2022/10/22 07:02:41;;;;;;;9.02;5.75;;;13.30;99.90;;;;;;7315720;32;20158;-63
2022/10/22 07:06:43;;;;;;;11.73;5.65;;;13.40;99.90;;;;;;7313544;32;20187;-62
2022/10/22 07:10:45;;;;;;;11.93;5.65;;;13.50;99.90;;;;;;7319367;32;20223;-61
2022/10/22 07:14:48;;;;;;;8.90;5.10;;;13.80;99.90;;;;;;7308460;32;20138;-62
2022/10/22 07:18:50;;;;;;;11.43;5.45;;;13.90;99.90;;;;;;7312013;32;20209;-62
2022/10/22 07:22:52;;;;;;;8.32;4.53;;;14.00;99.90;;;;;;7310744;32;20153;-64
2022/10/22 07:26:53;;;;;;;10.98;4.50;;;14.20;99.90;;;;;;7314449;32;20540;-62
2022/10/22 07:30:55;;;;;;;5.87;3.60;;;14.20;99.90;;;;;;7312289;32;20213;-62
2022/10/22 07:34:57;;;;;;;8.95;3.55;;;14.40;99.90;;;;;;7314232;32;20127;-60
2022/10/22 07:39:00;;;;;;;9.60;3.55;;;14.50;99.90;;;;;;7312578;32;20107;-64
2022/10/22 07:43:02;;;;;;;7.87;3.50;;;14.50;99.90;;;;;;7311673;32;20135;-64
2022/10/22 07:47:04;;;;;;;8.10;3.78;;;14.60;99.90;;;;;;7313930;32;20546;-64
2022/10/22 07:51:06;;;;;;;6.78;2.67;;;14.70;99.90;;;;;;7308672;32;20138;-62
2022/10/22 07:55:08;;;;;;;11.93;3.00;;;14.80;99.90;;;;;;7316277;32;20103;-62
2022/10/22 07:59:10;;;;;;;9.82;2.67;;;15.00;99.90;;;;;;7311138;32;20225;-63
2022/10/22 08:03:12;;;;;;;7.78;2.97;;;15.20;99.90;;;;;;7312865;32;21138;-62
2022/10/22 08:07:14;;;;;;;13.52;2.87;;;15.20;99.90;;;;;;7315891;32;20133;-62
2022/10/22 08:11:16;;;;;;;8.68;2.75;;;15.30;99.90;;;;;;7318668;32;20112;-64
2022/10/22 08:15:18;;;;;;;10.50;2.95;;;15.30;99.90;;;;;;7311234;32;20521;-62
2022/10/22 08:19:20;;;;;;;9.52;3.12;;;15.40;99.90;;;;;;7312562;32;20191;-61
2022/10/22 08:23:21;;;;;;;11.90;3.03;;;15.30;99.90;;;;;;7311732;32;20235;-62
2022/10/22 08:27:29;;;;;;;11.93;3.00;;;15.40;99.90;;;;;;7318443;32;20131;-63
2022/10/22 08:31:30;;;;;;;7.90;2.80;;;15.30;99.90;;;;;;7316034;32;20240;-62
2022/10/22 08:35:32;;;;;;;10.10;3.08;;;15.30;99.90;;;;;;7318517;32;20116;-61
2022/10/22 08:39:34;;;;;;;9.77;2.62;;;15.30;99.90;;;;;;7317820;32;20198;-63
2022/10/22 08:43:52;;;;;;;13.77;4.85;;;15.40;99.90;;;;;;7322349;32;20823;-62
2022/10/22 08:48:02;;;;;;;7.97;2.83;;;15.40;99.90;;;;;;7322707;32;20127;-60
2022/10/22 08:52:04;;;;;;;7.30;2.60;;;15.50;99.90;;;;;;7316447;32;20253;-62
2022/10/22 08:56:06;;;;;;;8.13;2.92;;;15.50;99.90;;;;;;7314638;32;20230;-65
2022/10/22 09:00:16;;;;;;;8.82;2.45;;;15.60;99.90;;;;;;7318580;32;20191;-63
2022/10/22 09:04:24;;;;;;;9.60;2.33;;;15.60;99.90;;;;;;7321252;32;20141;-63
2022/10/22 09:08:26;;;;;;;8.40;3.28;;;15.80;99.90;;;;;;7315135;32;20135;-64
2022/10/22 09:12:28;;;;;;;7.18;2.50;;;15.90;99.90;;;;;;7319014;32;20105;-64
2022/10/22 09:16:48;;;;;;;7.00;1.58;;;16.00;99.90;;;;;;7319963;32;20110;-62
2022/10/22 09:20:57;;;;;;;9.88;2.10;;;16.00;99.90;;;;;;7316972;32;20210;-62
2022/10/22 09:25:13;;;;;;;8.38;2.00;;;16.10;99.90;;;;;;7318860;32;20734;-62
2022/10/22 09:29:19;;;;;;;7.07;1.87;;;16.30;99.90;;;;;;7321113;32;20115;-62
2022/10/22 09:33:29;;;;;;;10.77;1.90;;;16.20;99.90;;;;;;7316679;32;20115;-62
2022/10/22 09:37:31;;;;;;;7.97;1.90;;;16.20;99.90;;;;;;7313580;32;20135;-62
2022/10/22 09:41:32;;;;;;;8.20;1.67;;;16.10;99.90;;;;;;7324092;32;20202;-58
2022/10/22 09:45:34;;;;;;;9.95;1.70;;;16.10;99.90;;;;;;7312355;32;20749;-63
2022/10/22 09:49:36;;;;;;;8.50;1.90;;;16.20;99.90;;;;;;7312329;32;20527;-65
2022/10/22 09:53:42;;;;;;;13.80;2.17;;;16.20;99.90;;;;;;7317265;32;20190;-63
2022/10/22 09:57:52;;;;;;;6.65;1.60;;;16.10;99.90;;;;;;7313600;32;20123;-62
2022/10/22 10:01:59;;;;;;;7.85;1.20;;;16.00;99.90;;;;;;7314181;32;20120;-63
2022/10/22 10:06:22;;;;;;;6.03;1.50;;;16.10;99.90;;;;;;7313379;32;20264;-62
2022/10/22 10:10:30;;;;;;;6.55;1.45;;;16.20;99.90;;;;;;7317594;32;20165;-62
2022/10/22 10:14:35;;;;;;;5.15;1.20;;;16.40;99.90;;;;;;7314967;32;20112;-62
2022/10/22 10:18:55;;;;;;;11.02;1.40;;;16.50;99.90;;;;;;7315697;32;20521;-64
2022/10/22 10:23:00;;;;;;;6.95;1.00;;;16.50;99.90;;;;;;7316289;32;20213;-63
2022/10/22 10:27:02;;;;;;;6.05;1.60;;;16.50;99.90;;;;;;7322067;32;20108;-63
2022/10/22 10:31:12;;;;;;;10.75;2.05;;;16.50;99.90;;;;;;7323887;32;20120;-63
2022/10/22 10:35:14;;;;;;;6.10;1.00;;;16.60;99.90;;;;;;7314891;32;20222;-63
2022/10/22 10:39:16;;;;;;;10.27;1.42;;;16.70;99.90;;;;;;7312386;32;20123;-65
2022/10/22 10:43:36;;;;;;;4.97;1.00;;;16.70;99.90;;;;;;7313871;32;20226;-64
2022/10/22 10:47:46;;;;;;;9.52;1.08;;;16.80;99.90;;;;;;7315134;32;20238;-63
2022/10/22 10:52:10;;;;;;;6.32;0.95;;;16.90;99.90;;;;;;7315820;32;20119;-62
2022/10/22 10:56:38;;;;;;;4.75;0.75;;;17.00;99.90;;;;;;7312822;32;20149;-62
2022/10/22 11:00:52;;;;;;;5.90;0.93;;;16.90;99.90;;;;;;7314585;32;20217;-63
2022/10/22 11:05:15;;;;;;;5.90;0.95;;;17.00;99.90;;;;;;7319160;32;20137;-62
2022/10/22 11:10:09;;;;;;;7.65;1.00;;;17.10;99.90;;;;;;7313802;32;20226;-63
2022/10/22 11:14:23;;;;;;;5.68;1.02;;;17.30;99.90;;;;;;7297301;32;20226;-64
2022/10/22 11:18:36;;;;;;;5.70;0.82;;;17.20;99.90;;;;;;7319366;32;20138;-63
2022/10/22 11:22:43;;;;;;;4.93;0.80;;;17.10;99.90;;;;;;7320481;32;20241;-63
2022/10/22 11:27:35;;;;;;;3.65;0.90;;;17.00;99.90;;;;;;7317618;32;20176;-62
2022/10/22 11:31:38;;;;;;;4.15;0.95;;;17.00;99.90;;;;;;7314394;32;20187;-63
2022/10/22 11:35:44;;;;;;;11.05;1.08;;;17.00;99.90;;;;;;7313857;32;20175;-64
2022/10/22 11:39:58;;;;;;;7.50;1.30;;;17.00;99.90;;;;;;7308561;32;20202;-64
2022/10/22 11:44:10;;;;;;;4.32;0.90;;;17.00;99.90;;;;;;7307900;32;20291;-63
2022/10/22 11:48:17;;;;;;;5.40;1.10;;;17.00;99.90;;;;;;7309311;32;20226;-62
2022/10/22 11:52:23;;;;;;;;;;;16.90;99.90;;;;;;7310972;32;20786;-62
2022/10/22 11:56:26;;;;;;;4.47;0.90;;;16.90;99.90;;;;;;7308710;32;20026;-64
2022/10/22 12:00:39;;;;;;;3.17;0.73;;;16.90;99.90;;;;;;7316104;32;20211;-64
2022/10/22 12:04:41;;;;;;;10.52;1.25;;;16.90;99.90;;;;;;7317411;32;20206;-62
2022/10/22 12:08:52;;;;;;;8.00;1.10;;;16.90;99.90;;;;;;7317239;32;20146;-63
2022/10/22 12:13:21;;;;;;;10.60;1.20;;;17.00;99.90;;;;;;7313711;32;20249;-62
2022/10/22 12:17:23;;;;;;;5.65;1.20;;;17.00;99.90;;;;;;7315245;32;20483;-63
2022/10/22 12:21:25;;;;;;;4.90;1.05;;;17.10;99.90;;;;;;7314833;32;20138;-66
2022/10/22 12:25:31;;;;;;;4.43;0.90;;;17.20;99.90;;;;;;7309284;32;20119;-62
2022/10/22 12:29:36;;;;;;;6.32;0.90;;;17.30;99.90;;;;;;7315433;32;20115;-63
2022/10/22 12:33:38;;;;;;;7.00;0.95;;;17.30;99.90;;;;;;7319083;32;20491;-61
2022/10/22 12:37:40;;;;;;;8.02;1.00;;;17.20;99.90;;;;;;7319221;32;20146;-63
2022/10/22 12:41:43;;;;;;;7.28;1.08;;;17.20;99.90;;;;;;7323156;32;20118;-62
2022/10/22 12:45:47;;;;;;;6.15;0.80;;;17.10;99.90;;;;;;7324128;32;20183;-61
2022/10/22 12:49:49;;;;;;;5.18;0.77;;;17.10;99.90;;;;;;7320732;32;20111;-64
2022/10/22 12:53:53;;;;;;;4.25;0.85;;;17.10;99.90;;;;;;7320089;32;20223;-61
2022/10/22 12:57:55;;;;;;;5.53;0.90;;;17.10;99.90;;;;;;7301695;32;20968;-57
2022/10/22 13:01:57;;;;;;;3.47;0.60;;;17.20;99.90;;;;;;7313466;32;20183;-59
2022/10/22 13:06:18;;;;;;;7.85;0.90;;;17.20;99.90;;;;;;7318710;32;20448;-58
2022/10/22 13:10:29;;;;;;;5.80;1.00;;;17.40;99.90;;;;;;7315084;32;20226;-63
2022/10/22 13:14:37;;;;;;;5.95;0.98;;;17.40;99.90;;;;;;7318468;32;20206;-62
2022/10/22 13:18:40;;;;;;;4.72;1.35;;;17.30;99.90;;;;;;7318408;32;20112;-61
2022/10/22 13:23:18;;;;;;;2.87;0.70;;;17.40;99.90;;;;;;7322673;32;20597;-60
2022/10/22 13:27:21;;;;;;;4.87;1.02;;;17.50;99.90;;;;;;7310641;32;20122;-61
2022/10/22 13:31:25;;;;;;;3.55;0.82;;;17.50;99.90;;;;;;7316496;32;20099;-62
2022/10/22 13:35:31;;;;;;;3.47;0.70;;;17.40;99.90;;;;;;7312014;32;20237;-62
2022/10/22 13:39:34;;;;;;;8.02;0.95;;;17.40;99.90;;;;;;7318422;32;20146;-61
2022/10/22 13:43:35;;;;;;;5.50;0.82;;;17.40;99.90;;;;;;7323967;32;20103;-62
2022/10/22 13:47:37;;;;;;;5.82;1.25;;;17.40;99.90;;;;;;7314762;32;20153;-62
2022/10/22 13:51:39;;;;;;;6.20;1.05;;;17.30;99.90;;;;;;7312771;32;20256;-58
2022/10/22 13:55:41;;;;;;;2.83;0.95;;;17.20;99.90;;;;;;7312945;32;20124;-61
2022/10/22 13:59:42;;;;;;;5.65;0.80;;;17.10;99.90;;;;;;7316163;32;20107;-61
2022/10/22 14:03:45;;;;;;;4.28;0.85;;;17.00;99.90;;;;;;7322249;32;20111;-61
2022/10/22 14:07:48;;;;;;;7.72;0.85;;;17.10;99.90;;;;;;7317547;32;20206;-63
2022/10/22 14:11:49;;;;;;;4.30;0.75;;;17.10;99.90;;;;;;7315309;32;20216;-62
2022/10/22 14:15:51;;;;;;;5.10;0.90;;;17.10;99.90;;;;;;7314451;32;20194;-62
2022/10/22 14:19:53;;;;;;;4.82;0.80;;;16.90;99.90;;;;;;7316048;32;20187;-62
2022/10/22 14:23:55;;;;;;;4.60;0.68;;;16.90;99.90;;;;;;7322507;32;20552;-61
2022/10/22 14:27:56;;;;;;;6.15;1.15;;;16.80;99.90;;;;;;7317825;32;20116;-62
2022/10/22 14:31:58;;;;;;;3.87;1.00;;;16.80;99.90;;;;;;7318182;32;20103;-63
2022/10/22 14:36:00;;;;;;;3.80;0.73;;;16.80;99.90;;;;;;7310936;32;20121;-63
2022/10/22 14:40:02;;;;;;;4.10;0.60;;;16.90;99.90;;;;;;7318463;32;20199;-63
2022/10/22 14:44:04;;;;;;;5.47;1.10;;;16.80;99.90;;;;;;7307642;32;20198;-64
2022/10/22 14:48:05;;;;;;;3.50;0.80;;;16.80;99.90;;;;;;7312707;32;20558;-65
2022/10/22 14:52:07;;;;;;;5.00;1.00;;;16.70;99.90;;;;;;7310741;32;20608;-64
2022/10/22 14:56:16;;;;;;;3.17;0.68;;;16.60;99.90;;;;;;7316600;32;20179;-64
2022/10/22 15:00:18;;;;;;;5.65;0.90;;;16.50;99.90;;;;;;7319960;32;20156;-64
2022/10/22 15:04:21;;;;;;;4.03;0.57;;;16.50;99.90;;;;;;7318444;32;20118;-65
2022/10/22 15:08:23;;;;;;;3.55;0.70;;;16.60;99.90;;;;;;7307514;32;20115;-64
2022/10/22 15:12:24;;;;;;;5.95;0.80;;;16.70;99.90;;;;;;7309495;32;20230;-64
2022/10/22 15:16:26;;;;;;;4.90;0.93;;;16.70;99.90;;;;;;7317767;32;20127;-63
2022/10/22 15:20:28;;;;;;;8.18;0.80;;;16.90;99.90;;;;;;7314118;32;20120;-64
2022/10/22 15:24:30;;;;;;;5.30;1.10;;;16.90;99.90;;;;;;7320010;32;20483;-64
2022/10/22 15:28:32;;;;;;;3.12;0.80;;;17.00;99.90;;;;;;7313618;32;20258;-63
2022/10/22 15:32:34;;;;;;;5.03;0.88;;;16.90;99.90;;;;;;7311460;32;20206;-64
2022/10/22 15:36:35;;;;;;;3.47;0.85;;;16.70;99.90;;;;;;7316568;32;20544;-63
2022/10/22 15:40:37;;;;;;;3.80;0.80;;;16.60;99.90;;;;;;7319746;32;20115;-62
2022/10/22 15:44:39;;;;;;;4.47;1.00;;;16.50;99.90;;;;;;7325062;32;20139;-63
2022/10/22 15:48:42;;;;;;;4.03;0.90;;;16.40;99.90;;;;;;7323642;32;20199;-62
2022/10/22 15:52:43;;;;;;;4.68;1.15;;;16.20;99.90;;;;;;7321401;32;20129;-63
2022/10/22 15:56:45;;;;;;;4.68;1.00;;;16.00;99.90;;;;;;7330419;32;20115;-63
2022/10/22 16:00:48;;;;;;;3.20;1.08;;;15.80;99.90;;;;;;7319237;32;20245;-63
2022/10/22 16:04:49;;;;;;;5.05;1.02;;;15.60;99.90;;;;;;7320652;32;20124;-63
2022/10/22 16:08:52;;;;;;;56.17;14.43;;;15.40;99.90;;;;;;7320461;32;20202;-61
2022/10/22 16:12:55;;;;;;;17.17;5.70;;;15.40;99.90;;;;;;7323587;32;20112;-62
2022/10/22 16:16:58;;;;;;;28.20;11.63;;;15.30;99.90;;;;;;7322969;32;20157;-63
2022/10/22 16:21:00;;;;;;;54.50;24.33;;;15.10;99.90;;;;;;7323871;32;20233;-63
2022/10/22 16:25:02;;;;;;;22.45;8.50;;;14.90;99.90;;;;;;7320997;32;20661;-63
2022/10/22 16:29:04;;;;;;;32.53;12.60;;;14.70;99.90;;;;;;7324119;32;20142;-62
2022/10/22 16:33:08;;;;;;;25.00;8.25;;;14.40;99.90;;;;;;7319699;32;20112;-63
2022/10/22 16:37:10;;;;;;;19.48;4.78;;;14.20;99.90;;;;;;7311913;32;20548;-62
2022/10/22 16:41:20;;;;;;;11.00;2.47;;;14.00;99.90;;;;;;7313979;32;20202;-61
2022/10/22 16:45:21;;;;;;;8.82;2.05;;;13.80;99.90;;;;;;7322855;32;20223;-62
2022/10/22 16:49:23;;;;;;;17.58;2.20;;;13.70;99.90;;;;;;7316303;32;20142;-61
2022/10/22 16:53:25;;;;;;;17.12;1.87;;;13.50;99.90;;;;;;7320232;32;20167;-60
2022/10/22 16:57:27;;;;;;;13.90;1.80;;;13.40;99.90;;;;;;7313624;32;20116;-61
2022/10/22 17:01:29;;;;;;;17.42;1.80;;;13.30;99.90;;;;;;7329543;32;20727;-62
2022/10/22 17:05:33;;;;;;;16.30;2.00;;;13.10;99.90;;;;;;7314848;32;20108;-60
2022/10/22 17:09:35;;;;;;;10.13;2.00;;;13.00;99.90;;;;;;7323481;32;20107;-62
2022/10/22 17:13:39;;;;;;;17.80;2.08;;;12.80;99.90;;;;;;7317263;32;20200;-60
2022/10/22 17:17:41;;;;;;;10.20;2.62;;;12.70;99.90;;;;;;7316960;32;20100;-62
2022/10/22 17:21:43;;;;;;;14.27;2.97;;;12.60;99.90;;;;;;7312527;32;20137;-62
2022/10/22 17:25:45;;;;;;;19.30;2.50;;;12.50;99.90;;;;;;7319583;32;20146;-64
2022/10/22 17:29:46;;;;;;;18.20;2.08;;;12.40;99.90;;;;;;7322191;32;20131;-61
2022/10/22 17:33:50;;;;;;;12.10;1.90;;;12.40;99.90;;;;;;7314712;32;20233;-61
2022/10/22 17:37:52;;;;;;;17.08;2.33;;;12.20;99.90;;;;;;7314374;32;20246;-62
2022/10/22 17:41:54;;;;;;;14.20;2.28;;;12.10;99.90;;;;;;7317379;32;20163;-60
2022/10/22 17:46:06;;;;;;;18.98;2.33;;;12.00;99.90;;;;;;7320411;32;20115;-61
2022/10/22 17:50:08;;;;;;;8.98;1.60;;;12.00;99.90;;;;;;7312927;32;20125;-60
2022/10/22 17:54:11;;;;;;;9.55;1.80;;;12.00;99.90;;;;;;7318123;32;20130;-59
2022/10/22 17:58:13;;;;;;;11.98;3.03;;;12.00;99.90;;;;;;7323575;32;20107;-59
2022/10/22 18:02:16;;;;;;;11.15;2.83;;;12.00;99.90;;;;;;7318218;32;20124;-59
2022/10/22 18:06:18;;;;;;;13.85;2.60;;;11.90;99.90;;;;;;7324898;32;20153;-60
2022/10/22 18:10:20;;;;;;;9.75;2.67;;;11.90;99.90;;;;;;7312898;32;22364;-62
2022/10/22 18:14:22;;;;;;;30.25;9.60;;;11.70;99.90;;;;;;7312122;32;20158;-64
2022/10/22 18:18:24;;;;;;;11.52;7.20;;;11.70;99.90;;;;;;7307715;32;20120;-61
2022/10/22 18:22:26;;;;;;;18.65;5.50;;;11.70;99.90;;;;;;7319289;32;20111;-62
2022/10/22 18:26:28;;;;;;;9.48;3.08;;;11.70;99.90;;;;;;7308862;32;20934;-61
2022/10/22 18:30:29;;;;;;;9.95;2.50;;;11.60;99.90;;;;;;7314142;32;20179;-60
2022/10/22 18:34:36;;;;;;;12.23;2.53;;;11.50;99.90;;;;;;7315838;32;20836;-60
2022/10/22 18:38:38;;;;;;;9.47;2.30;;;11.40;99.90;;;;;;7318271;32;20123;-60
2022/10/22 18:42:39;;;;;;;13.93;2.47;;;11.40;99.90;;;;;;7313390;32;20234;-61
2022/10/22 18:46:42;;;;;;;13.93;2.60;;;11.30;99.90;;;;;;7313773;32;20217;-58
2022/10/22 18:50:44;;;;;;;13.32;2.45;;;11.20;99.90;;;;;;7318161;32;20124;-61
2022/10/22 18:54:45;;;;;;;14.95;2.55;;;11.20;99.90;;;;;;7314249;32;20107;-60
2022/10/22 18:58:48;;;;;;;15.60;2.30;;;11.20;99.90;;;;;;7309331;32;20126;-61
2022/10/22 19:02:50;;;;;;;19.15;2.50;;;11.10;99.90;;;;;;7320172;32;20226;-60
2022/10/22 19:06:51;;;;;;;15.02;2.87;;;11.10;99.90;;;;;;7315582;32;20520;-60
2022/10/22 19:10:53;;;;;;;13.50;2.45;;;11.00;99.90;;;;;;7319475;32;20216;-60
2022/10/22 19:14:55;;;;;;;11.70;2.53;;;11.00;99.90;;;;;;7325260;32;20715;-61
2022/10/22 19:19:02;;;;;;;17.23;2.85;;;11.00;99.90;;;;;;7320605;32;20542;-62
2022/10/22 19:23:04;;;;;;;18.45;2.75;;;10.90;99.90;;;;;;7321700;32;20115;-61
2022/10/22 19:27:07;;;;;;;17.23;2.60;;;10.90;99.90;;;;;;7315821;32;20165;-61
2022/10/22 19:31:12;;;;;;;16.58;9.75;;;10.90;99.90;;;;;;7312712;32;20552;-63
2022/10/22 19:35:14;;;;;;;14.48;3.22;;;10.90;99.90;;;;;;7316639;32;20223;-61
2022/10/22 19:39:16;;;;;;;11.00;2.62;;;10.80;99.90;;;;;;7310408;32;20179;-63
2022/10/22 19:43:18;;;;;;;13.05;3.20;;;10.80;99.90;;;;;;7314396;32;20553;-61
2022/10/22 19:47:20;;;;;;;11.02;3.05;;;10.80;99.90;;;;;;7319849;32;20417;-61
2022/10/22 19:51:25;;;;;;;13.75;3.45;;;10.70;99.90;;;;;;7313629;32;20638;-62
2022/10/22 19:55:27;;;;;;;15.73;3.08;;;10.70;99.90;;;;;;7313349;32;20196;-63
2022/10/22 19:59:29;;;;;;;10.05;2.92;;;10.70;99.90;;;;;;7313475;32;20154;-62
2022/10/22 20:03:35;;;;;;;15.75;2.78;;;10.60;99.90;;;;;;7310663;32;20107;-61
2022/10/22 20:07:36;;;;;;;16.50;2.42;;;10.60;99.90;;;;;;7312540;32;20134;-62
2022/10/22 20:11:39;;;;;;;15.90;2.72;;;10.60;99.90;;;;;;7313357;32;20192;-61
2022/10/22 20:15:40;;;;;;;13.50;2.47;;;10.60;99.90;;;;;;7313906;32;20592;-62
2022/10/22 20:19:42;;;;;;;13.35;2.70;;;10.60;99.90;;;;;;7317848;32;20666;-61
2022/10/22 20:23:45;;;;;;;14.05;2.70;;;10.60;99.90;;;;;;7312059;32;20234;-61
2022/10/22 20:27:46;;;;;;;12.05;3.08;;;10.60;99.90;;;;;;7318554;32;20175;-61
2022/10/22 20:31:48;;;;;;;11.43;3.20;;;10.60;99.90;;;;;;7322913;32;20564;-61
2022/10/22 20:35:58;;;;;;;18.12;2.95;;;10.60;99.90;;;;;;7320511;32;20111;-61
2022/10/22 20:40:00;;;;;;;9.73;2.90;;;10.60;99.90;;;;;;7317261;32;20182;-60
2022/10/22 20:44:02;;;;;;;15.77;4.93;;;10.70;99.90;;;;;;7323397;32;20183;-61
2022/10/22 20:48:04;;;;;;;9.13;3.25;;;10.80;99.90;;;;;;7317612;32;20194;-61
2022/10/22 20:52:07;;;;;;;13.90;3.78;;;10.90;99.90;;;;;;7319992;32;20634;-61
2022/10/22 20:56:09;;;;;;;10.80;2.78;;;11.00;99.90;;;;;;7317473;32;20115;-60
2022/10/22 21:00:12;;;;;;;13.13;3.25;;;11.10;99.90;;;;;;7321095;32;20120;-61
2022/10/22 21:04:14;;;;;;;13.32;3.28;;;11.20;99.90;;;;;;7313712;32;20662;-61
2022/10/22 21:08:16;;;;;;;12.07;2.87;;;11.30;99.90;;;;;;7317130;32;20493;-62